createdAt,value
2018-06-09T00:02:49.714Z,100616.00
2018-06-09T00:07:53.813Z,100613.00
2018-06-09T00:12:57.661Z,100607.00
2018-06-09T00:18:01.922Z,100608.00
2018-06-09T00:23:05.769Z,100613.00
2018-06-09T00:28:09.765Z,100610.00
2018-06-09T00:33:13.583Z,100611.00
2018-06-09T00:38:17.446Z,100601.00
2018-06-09T00:43:21.288Z,100603.00
2018-06-09T00:48:25.426Z,100598.00
2018-06-09T00:53:29.862Z,100599.00
2018-06-09T00:58:33.788Z,100599.00
2018-06-09T01:03:37.657Z,100597.00
2018-06-09T01:08:41.759Z,100596.00
2018-06-09T01:13:45.833Z,100593.00
2018-06-09T01:18:49.700Z,100599.00
2018-06-09T01:23:53.801Z,100596.00
2018-06-09T01:28:57.970Z,100601.00
2018-06-09T01:34:02.042Z,100604.00
2018-06-09T01:39:08.032Z,100603.00
2018-06-09T01:44:12.145Z,100610.00
2018-06-09T01:49:16.027Z,100596.00
2018-06-09T01:54:20.353Z,100597.00
2018-06-09T01:59:24.201Z,100601.00
2018-06-09T02:04:28.402Z,100610.00
2018-06-09T02:09:32.253Z,100612.00
2018-06-09T02:14:36.133Z,100606.00
2018-06-09T02:19:40.218Z,100612.00
2018-06-09T02:24:44.076Z,100597.00
2018-06-09T02:29:47.933Z,100592.00
2018-06-09T02:34:51.793Z,100587.00
2018-06-09T02:39:55.642Z,100594.00
2018-06-09T02:44:59.812Z,100593.00
2018-06-09T02:50:03.921Z,100598.00
2018-06-09T02:55:08.006Z,100597.00
2018-06-09T03:00:12.126Z,100601.00
2018-06-09T03:05:15.964Z,100605.00
2018-06-09T03:10:19.818Z,100591.00
2018-06-09T03:15:23.692Z,100585.00
2018-06-09T03:20:27.548Z,100588.00
2018-06-09T03:25:31.399Z,100587.00
2018-06-09T03:30:35.484Z,100579.00
2018-06-09T03:35:39.315Z,100586.00
2018-06-09T03:40:43.165Z,100587.00
2018-06-09T03:45:47.003Z,100589.00
2018-06-09T03:50:50.848Z,100598.00
2018-06-09T03:55:54.689Z,100602.00
2018-06-09T04:00:58.522Z,100605.00
2018-06-09T04:06:02.334Z,100613.00
2018-06-09T04:11:06.235Z,100617.00
2018-06-09T04:16:10.405Z,100612.00
2018-06-09T04:21:14.461Z,100611.00
2018-06-09T04:26:19.000Z,100613.00
2018-06-09T04:31:22.847Z,100616.00
2018-06-09T04:36:26.662Z,100613.00
2018-06-09T04:41:30.477Z,100610.00
2018-06-09T04:46:34.306Z,100606.00
2018-06-09T04:51:38.146Z,100608.00
2018-06-09T04:56:41.954Z,100613.00
2018-06-09T05:01:46.013Z,100605.00
2018-06-09T05:06:50.084Z,100603.00
2018-06-09T05:11:53.909Z,100608.00
2018-06-09T05:16:57.715Z,100611.00
2018-06-09T05:22:01.536Z,100614.00
2018-06-09T05:27:05.595Z,100623.00
2018-06-09T05:32:09.396Z,100621.00
2018-06-09T05:37:13.294Z,100620.00
2018-06-09T05:42:17.093Z,100627.00
2018-06-09T05:47:21.226Z,100614.00
2018-06-09T05:52:25.050Z,100615.00
2018-06-09T05:57:28.953Z,100627.00
2018-06-09T06:02:32.815Z,100634.00
2018-06-09T06:07:36.662Z,100637.00
2018-06-09T06:12:40.465Z,100638.00
2018-06-09T06:17:44.272Z,100640.00
2018-06-09T06:22:48.108Z,100639.00
2018-06-09T06:27:52.200Z,100647.00
2018-06-09T06:32:56.022Z,100645.00
2018-06-09T06:37:59.825Z,100653.00
2018-06-09T06:43:03.879Z,100656.00
2018-06-09T06:48:07.693Z,100668.00
2018-06-09T06:53:11.497Z,100673.00
2018-06-09T06:58:15.559Z,100665.00
2018-06-09T07:03:19.440Z,100664.00
2018-06-09T07:08:23.249Z,100655.00
2018-06-09T07:13:27.614Z,100658.00
2018-06-09T07:18:31.642Z,100668.00
2018-06-09T07:23:35.703Z,100669.00
2018-06-09T07:28:39.526Z,100667.00
2018-06-09T07:33:43.397Z,100677.00
2018-06-09T07:38:47.275Z,100673.00
2018-06-09T07:43:51.089Z,100673.00
2018-06-09T07:48:55.147Z,100674.00
2018-06-09T07:53:59.246Z,100675.00
2018-06-09T07:59:03.086Z,100677.00
2018-06-09T08:04:07.013Z,100677.00
2018-06-09T08:09:10.821Z,100689.00
2018-06-09T08:14:14.634Z,100688.00
2018-06-09T08:19:18.489Z,100701.00
2018-06-09T08:24:22.558Z,100689.00
2018-06-09T08:29:26.421Z,100688.00
2018-06-09T08:34:30.230Z,100686.00
2018-06-09T08:39:34.077Z,100691.00
2018-06-09T08:44:37.897Z,100686.00
2018-06-09T08:49:41.954Z,100701.00
2018-06-09T08:54:46.020Z,100688.00
2018-06-09T08:59:49.829Z,100694.00
2018-06-09T09:04:53.633Z,100696.00
2018-06-09T09:09:57.445Z,100689.00
2018-06-09T09:15:01.265Z,100684.00
2018-06-09T09:20:05.414Z,100687.00
2018-06-09T09:25:09.349Z,100693.00
2018-06-09T09:30:13.440Z,100686.00
2018-06-09T09:35:17.265Z,100684.00
2018-06-09T09:40:21.098Z,100684.00
2018-06-09T09:45:24.915Z,100681.00
2018-06-09T09:50:28.814Z,100680.00
2018-06-09T09:55:32.629Z,100677.00
2018-06-09T10:00:38.306Z,100667.00
2018-06-09T10:05:42.121Z,100660.00
2018-06-09T10:10:45.969Z,100667.00
2018-06-09T10:15:49.812Z,100665.00
2018-06-09T10:20:53.640Z,100661.00
2018-06-09T10:25:57.445Z,100660.00
2018-06-09T10:31:01.239Z,100661.00
2018-06-09T10:36:05.325Z,100658.00
2018-06-09T10:41:10.462Z,100659.00
2018-06-09T10:46:14.514Z,100653.00
2018-06-09T10:51:18.562Z,100650.00
2018-06-09T10:56:22.399Z,100654.00
2018-06-09T11:01:26.222Z,100651.00
2018-06-09T11:06:30.037Z,100654.00
2018-06-09T11:11:33.865Z,100643.00
2018-06-09T11:16:37.693Z,100634.00
2018-06-09T11:21:41.542Z,100629.00
2018-06-09T11:26:45.400Z,100621.00
2018-06-09T11:31:49.233Z,100613.00
2018-06-09T11:36:53.074Z,100607.00
2018-06-09T11:41:56.876Z,100604.00
2018-06-09T11:47:02.665Z,100601.00
2018-06-09T11:52:06.799Z,100591.00
2018-06-09T11:57:11.228Z,100592.00
2018-06-09T12:02:15.055Z,100589.00
2018-06-09T12:07:18.973Z,100585.00
2018-06-09T12:12:23.030Z,100576.00
2018-06-09T12:17:27.083Z,100574.00
2018-06-09T12:22:30.907Z,100569.00
2018-06-09T12:27:34.745Z,100570.00
2018-06-09T12:32:38.783Z,100562.00
2018-06-09T12:37:42.920Z,100567.00
2018-06-09T12:42:46.951Z,100561.00
2018-06-09T12:47:50.974Z,100562.00
2018-06-09T12:52:55.018Z,100551.00
2018-06-09T12:57:59.058Z,100548.00
2018-06-09T13:03:03.758Z,100539.00
2018-06-09T13:08:07.830Z,100540.00
2018-06-09T13:13:11.670Z,100536.00
2018-06-09T13:18:15.472Z,100528.00
2018-06-09T13:23:19.290Z,100520.00
2018-06-09T13:28:23.490Z,100515.00
2018-06-09T13:33:28.129Z,100511.00
2018-06-09T13:38:31.983Z,100496.00
2018-06-09T13:43:35.813Z,100487.00
2018-06-09T13:48:39.622Z,100484.00
2018-06-09T13:53:43.421Z,100480.00
2018-06-09T13:58:47.254Z,100473.00
2018-06-09T14:03:51.342Z,100475.00
2018-06-09T14:08:55.390Z,100475.00
2018-06-09T14:13:59.220Z,100463.00
2018-06-09T14:19:03.106Z,100469.00
2018-06-09T14:24:07.178Z,100473.00
2018-06-09T14:29:10.969Z,100476.00
2018-06-09T14:34:15.322Z,100474.00
2018-06-09T14:39:19.461Z,100475.00
2018-06-09T14:44:23.260Z,100470.00
2018-06-09T14:49:27.311Z,100470.00
2018-06-09T14:54:31.359Z,100472.00
2018-06-09T14:59:35.189Z,100473.00
2018-06-09T15:04:38.985Z,100473.00
2018-06-09T15:09:42.789Z,100469.00
2018-06-09T15:14:46.594Z,100464.00
2018-06-09T15:19:50.425Z,100469.00
2018-06-09T15:24:54.249Z,100472.00
2018-06-09T15:29:58.311Z,100476.00
2018-06-09T15:35:02.478Z,100468.00
2018-06-09T15:40:06.283Z,100468.00
2018-06-09T15:45:10.090Z,100463.00
2018-06-09T15:50:13.894Z,100451.00
2018-06-09T15:55:17.705Z,100441.00
2018-06-09T16:00:21.768Z,100435.00
2018-06-09T16:05:25.822Z,100432.00
2018-06-09T16:10:29.635Z,100440.00
2018-06-09T16:15:33.553Z,100441.00
2018-06-09T16:20:37.357Z,100447.00
2018-06-09T16:25:41.174Z,100450.00
2018-06-09T16:30:45.004Z,100449.00
2018-06-09T16:35:49.077Z,100446.00
2018-06-09T16:40:52.869Z,100452.00
2018-06-09T16:45:56.777Z,100455.00
2018-06-09T16:51:00.582Z,100457.00
2018-06-09T16:56:04.466Z,100467.00
2018-06-09T17:01:08.548Z,100470.00
2018-06-09T17:06:12.682Z,100476.00
2018-06-09T17:11:16.490Z,100480.00
2018-06-09T17:16:20.375Z,100482.00
2018-06-09T17:21:24.174Z,100477.00
2018-06-09T17:26:28.257Z,100465.00
2018-06-09T17:31:32.094Z,100455.00
2018-06-09T17:36:36.148Z,100450.00
2018-06-09T17:41:40.000Z,100443.00
2018-06-09T17:46:43.756Z,100449.00
2018-06-09T17:51:47.815Z,100451.00
2018-06-09T17:56:51.849Z,100460.00
2018-06-09T18:01:55.664Z,100463.00
2018-06-09T18:06:59.469Z,100465.00
2018-06-09T18:12:03.305Z,100467.00
2018-06-09T18:17:07.129Z,100479.00
2018-06-09T18:22:11.183Z,100480.00
2018-06-09T18:27:15.029Z,100483.00
2018-06-09T18:32:19.077Z,100484.00
2018-06-09T18:37:23.120Z,100489.00
2018-06-09T18:42:27.730Z,100498.00
2018-06-09T18:47:31.589Z,100499.00
2018-06-09T18:52:35.384Z,100488.00
2018-06-09T18:57:39.475Z,100494.00
2018-06-09T19:02:43.312Z,100498.00
2018-06-09T19:07:47.355Z,100497.00
2018-06-09T19:12:51.150Z,100502.00
2018-06-09T19:17:54.961Z,100505.00
2018-06-09T19:22:58.791Z,100512.00
2018-06-09T19:28:02.786Z,100515.00
2018-06-09T19:33:06.891Z,100514.00
2018-06-09T19:38:10.690Z,100526.00
2018-06-09T19:43:14.498Z,100528.00
2018-06-09T19:48:18.558Z,100533.00
2018-06-09T19:53:22.351Z,100542.00
2018-06-09T19:58:26.181Z,100540.00
2018-06-09T20:03:30.269Z,100544.00
2018-06-09T20:08:34.338Z,100545.00
2018-06-09T20:13:38.378Z,100548.00
2018-06-09T20:18:42.426Z,100547.00
2018-06-09T20:23:46.458Z,100547.00
2018-06-09T20:28:50.497Z,100548.00
2018-06-09T20:33:54.310Z,100547.00
2018-06-09T20:38:58.397Z,100545.00
2018-06-09T20:44:02.582Z,100541.00
2018-06-09T20:49:06.650Z,100545.00
2018-06-09T20:54:10.450Z,100548.00
2018-06-09T20:59:15.240Z,100538.00
2018-06-09T21:04:19.366Z,100531.00
2018-06-09T21:09:23.190Z,100526.00
2018-06-09T21:14:28.075Z,100530.00
2018-06-09T21:19:32.069Z,100542.00
2018-06-09T21:24:35.866Z,100549.00
2018-06-09T21:29:45.077Z,100554.00
2018-06-09T21:35:06.212Z,100561.00
2018-06-09T21:40:18.306Z,100568.00
2018-06-09T21:45:28.362Z,100569.00
2018-06-09T21:50:32.222Z,100561.00
2018-06-09T21:55:36.305Z,100563.00
2018-06-09T22:00:40.452Z,100558.00
2018-06-09T22:05:44.542Z,100555.00
2018-06-09T22:10:48.372Z,100556.00
2018-06-09T22:15:52.226Z,100555.00
2018-06-09T22:20:56.078Z,100558.00
2018-06-09T22:26:00.774Z,100572.00
2018-06-09T22:31:04.630Z,100562.00
2018-06-09T22:36:08.445Z,100545.00
2018-06-09T22:41:12.310Z,100516.00
2018-06-09T22:46:16.151Z,100528.00
2018-06-09T22:51:20.206Z,100540.00
2018-06-09T22:56:24.010Z,100554.00
2018-06-09T23:01:27.941Z,100582.00
2018-06-09T23:06:31.752Z,100610.00
2018-06-09T23:11:35.794Z,100612.00
2018-06-09T23:16:39.597Z,100636.00
2018-06-09T23:21:43.401Z,100647.00
2018-06-09T23:26:47.466Z,100654.00
2018-06-09T23:31:51.268Z,100656.00
2018-06-09T23:36:55.144Z,100653.00
2018-06-09T23:41:59.058Z,100664.00
2018-06-09T23:47:02.857Z,100676.00
2018-06-09T23:52:06.669Z,100665.00
2018-06-09T23:57:10.726Z,100648.00
